Palo Alto, Texas
Current Conditions -  °F | °C
As of 8:56 PM on Monday 20 Oct 2014 (Local Time) from KNQI Reporting Station
Scattered Clouds Scattered Clouds  
Wind Chill: 73°   Ceiling: Unl
Heat Index: 73°   Visibility: 10mi
Dew Point: 71°   Wind: 6mph
Humidity: 93%   Direction: 60°ENE
Pressure: 29.96"   Gusts: NA
Location:  27.6102°N, 97.7383°W
Report Text: KNQI 210156Z 06005KT 10SM FEW030 SCT100 SCT250 23/22 A2996 RMK AO2 SLP142 T02280217
Loading
Personal Weather Stations






























Interactive Weather Map
Tropical Storm Tracking
New forecast layout! Learn more

10-Day Weather Forecast

Advertisements
Track Severe Weather on mobile